createdAt,value
2023-03-25T00:03:38.702Z,9.06
2023-03-25T00:11:13.956Z,8.98
2023-03-25T00:18:49.870Z,8.95
2023-03-25T00:26:25.027Z,8.91
2023-03-25T00:41:54.498Z,8.74
2023-03-25T00:49:28.856Z,8.75
2023-03-25T00:57:04.272Z,8.68
2023-03-25T01:04:41.426Z,8.62
2023-03-25T01:12:19.156Z,8.48
2023-03-25T01:19:53.110Z,8.50
2023-03-25T01:27:28.435Z,8.46
2023-03-25T01:35:02.345Z,8.46
2023-03-25T01:42:37.748Z,8.42
2023-03-25T01:50:15.358Z,8.42
2023-03-25T01:57:54.525Z,8.28
2023-03-25T02:05:36.130Z,8.16
2023-03-25T02:13:11.695Z,8.15
2023-03-25T02:21:23.848Z,8.18
2023-03-25T02:29:07.333Z,8.25
2023-03-25T02:37:14.351Z,8.28
2023-03-25T02:44:57.189Z,8.34
2023-03-25T02:52:37.990Z,8.35
2023-03-25T03:00:16.121Z,8.40
2023-03-25T03:07:56.194Z,8.43
2023-03-25T03:15:39.367Z,8.50
2023-03-25T03:23:24.321Z,8.58
2023-03-25T03:31:07.137Z,8.63
2023-03-25T03:38:44.563Z,8.65
2023-03-25T03:46:24.294Z,8.64
2023-03-25T03:54:00.848Z,8.63
2023-03-25T04:01:46.477Z,8.64
2023-03-25T04:09:27.514Z,8.65
2023-03-25T04:17:02.963Z,8.66
2023-03-25T04:24:37.933Z,8.69
2023-03-25T04:32:13.696Z,8.67
2023-03-25T04:39:47.621Z,8.58
2023-03-25T04:47:26.224Z,8.55
2023-03-25T04:55:00.174Z,8.56
2023-03-25T05:02:35.903Z,8.52
2023-03-25T05:10:11.307Z,8.46
2023-03-25T05:17:46.689Z,8.47
2023-03-25T05:25:22.358Z,8.47
2023-03-25T05:33:00.234Z,8.52
2023-03-25T05:40:34.459Z,8.70
2023-03-25T05:56:01.421Z,8.81
2023-03-25T06:03:36.689Z,8.97
2023-03-25T06:11:14.001Z,9.01
2023-03-25T06:18:56.256Z,9.08
2023-03-25T06:26:30.574Z,9.17
2023-03-25T06:34:05.853Z,9.24
2023-03-25T06:41:39.809Z,9.25
2023-03-25T06:49:15.164Z,9.25
2023-03-25T06:56:49.249Z,9.28
2023-03-25T07:04:25.276Z,9.48
2023-03-25T07:11:59.622Z,9.76
2023-03-25T07:19:35.125Z,9.98
2023-03-25T07:27:11.329Z,10.37
2023-03-25T07:34:46.680Z,10.78
2023-03-25T07:42:20.590Z,11.09
2023-03-25T07:57:47.450Z,10.91
2023-03-25T08:05:22.849Z,11.54
2023-03-25T08:12:56.738Z,11.59
2023-03-25T08:20:32.250Z,11.81
2023-03-25T08:28:07.680Z,11.86
2023-03-25T08:35:43.827Z,12.06
2023-03-25T08:43:18.113Z,12.05
2023-03-25T08:50:53.588Z,12.43
2023-03-25T08:58:28.244Z,11.94
2023-03-25T09:06:06.847Z,11.78
2023-03-25T09:13:40.919Z,11.75
2023-03-25T09:21:16.225Z,11.69
2023-03-25T09:28:50.172Z,11.83
2023-03-25T09:36:25.554Z,11.79
2023-03-25T09:44:10.582Z,12.87
2023-03-25T09:51:47.731Z,12.50
2023-03-25T09:59:23.375Z,13.16
2023-03-25T10:07:14.244Z,12.61
2023-03-25T10:15:01.972Z,12.99
2023-03-25T10:22:45.477Z,13.48
2023-03-25T10:30:22.575Z,12.91
2023-03-25T10:38:02.083Z,13.06
2023-03-25T10:45:41.732Z,12.93
2023-03-25T11:09:18.531Z,13.30
2023-03-25T11:16:57.499Z,12.99
2023-03-25T11:24:36.369Z,13.14
2023-03-25T11:32:16.197Z,12.84
2023-03-25T11:39:55.796Z,12.55
2023-03-25T11:47:33.616Z,12.45
2023-03-25T11:55:19.235Z,12.38
2023-03-25T12:03:01.437Z,12.63
2023-03-25T12:10:50.162Z,12.85
2023-03-25T12:18:43.638Z,13.10
2023-03-25T12:26:26.490Z,12.92
2023-03-25T12:34:14.960Z,13.23
2023-03-25T12:42:01.190Z,13.64
2023-03-25T12:49:51.058Z,13.45
2023-03-25T12:57:43.000Z,13.31
2023-03-25T13:05:23.205Z,13.01
2023-03-25T13:13:01.392Z,11.77
2023-03-25T13:20:39.664Z,11.48
2023-03-25T13:28:18.503Z,10.99
2023-03-25T13:35:56.590Z,10.76
2023-03-25T13:43:36.379Z,10.30
2023-03-25T13:51:11.204Z,10.33
2023-03-25T14:07:35.632Z,10.73
2023-03-25T14:23:14.064Z,11.07
2023-03-25T14:31:08.317Z,11.46
2023-03-25T14:38:56.569Z,11.83
2023-03-25T14:46:36.759Z,12.13
2023-03-25T14:54:20.306Z,12.11
2023-03-25T15:02:01.691Z,12.06
2023-03-25T15:09:47.504Z,12.03
2023-03-25T15:17:49.201Z,12.45
2023-03-25T15:25:24.092Z,12.99
2023-03-25T15:33:16.542Z,12.99
2023-03-25T15:41:04.639Z,12.66
2023-03-25T15:49:12.481Z,12.26
2023-03-25T15:56:49.876Z,12.01
2023-03-25T16:04:36.573Z,11.80
2023-03-25T16:12:11.874Z,11.63
2023-03-25T16:19:50.495Z,11.05
2023-03-25T16:27:26.929Z,10.45
2023-03-25T16:35:02.515Z,10.36
2023-03-25T16:42:37.400Z,10.44
2023-03-25T16:50:17.712Z,10.38
2023-03-25T16:57:51.804Z,10.32
2023-03-25T17:05:30.274Z,10.41
2023-03-25T17:13:09.054Z,10.50
2023-03-25T17:20:47.122Z,10.26
2023-03-25T17:28:29.644Z,10.16
2023-03-25T17:36:10.586Z,10.18
2023-03-25T17:43:46.509Z,10.20
2023-03-25T17:51:22.601Z,10.24
2023-03-25T17:59:01.111Z,10.25
2023-03-25T18:06:37.822Z,10.18
2023-03-25T18:14:11.927Z,10.12
2023-03-25T18:21:47.294Z,10.00
2023-03-25T18:29:24.351Z,9.91
2023-03-25T18:36:59.778Z,9.86
2023-03-25T18:44:34.750Z,9.90
2023-03-25T18:52:10.705Z,9.93
2023-03-25T18:59:44.735Z,9.85
2023-03-25T19:07:20.532Z,9.79
2023-03-25T19:14:54.717Z,9.57
2023-03-25T19:22:30.484Z,9.40
2023-03-25T19:30:05.751Z,9.19
2023-03-25T19:37:47.636Z,9.14
2023-03-25T19:45:22.507Z,9.16
2023-03-25T19:52:59.365Z,9.11
2023-03-25T20:00:33.366Z,8.98
2023-03-25T20:08:09.994Z,8.90
2023-03-25T20:15:44.231Z,8.82
2023-03-25T20:23:20.043Z,8.78
2023-03-25T20:30:55.683Z,8.75
2023-03-25T20:38:31.224Z,8.65
2023-03-25T20:46:10.297Z,8.58
2023-03-25T20:53:45.864Z,8.62
2023-03-25T21:01:21.257Z,8.54
2023-03-25T21:08:59.442Z,8.53
2023-03-25T21:16:35.094Z,8.46
2023-03-25T21:24:11.710Z,8.50
2023-03-25T21:31:45.981Z,8.49
2023-03-25T21:39:21.560Z,8.46
2023-03-25T21:46:56.847Z,8.48
2023-03-25T21:54:32.500Z,8.38
2023-03-25T22:02:08.786Z,8.27
2023-03-25T22:09:44.291Z,8.30
2023-03-25T22:17:18.186Z,8.23
2023-03-25T22:24:53.512Z,8.20
2023-03-25T22:32:27.640Z,8.18
2023-03-25T22:40:05.176Z,8.18
2023-03-25T22:47:39.372Z,8.21
2023-03-25T22:55:14.893Z,8.22
2023-03-25T23:10:44.469Z,8.21
2023-03-25T23:18:18.374Z,8.22
2023-03-25T23:26:05.224Z,8.21
2023-03-25T23:33:39.105Z,8.16
2023-03-25T23:41:15.853Z,8.15
2023-03-25T23:48:54.834Z,8.18
2023-03-25T23:56:31.425Z,8.16
